createdAt,value
2018-09-20T00:00:12.256Z,11.03
2018-09-20T00:02:41.138Z,9.43
2018-09-20T00:05:10.011Z,10.70
2018-09-20T00:07:38.895Z,12.03
2018-09-20T00:10:07.830Z,16.60
2018-09-20T00:12:36.659Z,10.60
2018-09-20T00:15:05.990Z,5.60
2018-09-20T00:17:34.783Z,5.67
2018-09-20T00:20:03.656Z,5.73
2018-09-20T00:22:32.878Z,5.27
2018-09-20T00:25:03.372Z,5.20
2018-09-20T00:27:32.378Z,8.57
2018-09-20T00:30:01.144Z,6.53
2018-09-20T00:32:29.883Z,8.00
2018-09-20T00:34:58.759Z,6.20
2018-09-20T00:37:27.586Z,5.37
2018-09-20T00:39:56.406Z,5.93
2018-09-20T00:42:25.143Z,5.53
2018-09-20T00:44:54.865Z,7.67
2018-09-20T00:47:23.694Z,6.87
2018-09-20T00:49:52.582Z,6.60
2018-09-20T00:52:21.439Z,6.50
2018-09-20T00:54:50.699Z,8.40
2018-09-20T00:57:19.484Z,12.53
2018-09-20T00:59:48.359Z,10.00
2018-09-20T01:02:17.126Z,7.07
2018-09-20T01:04:46.105Z,7.70
2018-09-20T01:07:15.050Z,6.40
2018-09-20T01:09:44.378Z,7.33
2018-09-20T01:12:13.280Z,11.00
2018-09-20T01:14:42.025Z,8.83
2018-09-20T01:17:11.031Z,6.33
2018-09-20T01:19:39.848Z,6.80
2018-09-20T01:22:09.090Z,8.97
2018-09-20T01:24:37.939Z,8.83
2018-09-20T01:27:06.898Z,9.47
2018-09-20T01:29:37.747Z,9.40
2018-09-20T01:32:06.659Z,12.20
2018-09-20T01:34:35.831Z,8.07
2018-09-20T01:37:04.579Z,8.67
2018-09-20T01:39:33.536Z,8.97
2018-09-20T01:42:02.788Z,8.90
2018-09-20T01:44:32.171Z,7.10
2018-09-20T01:47:01.066Z,9.63
2018-09-20T01:49:30.108Z,7.00
2018-09-20T01:51:59.011Z,9.47
2018-09-20T01:54:27.941Z,6.43
2018-09-20T01:56:56.830Z,8.53
2018-09-20T01:59:25.721Z,11.00
2018-09-20T02:01:54.598Z,8.70
2018-09-20T02:04:23.455Z,7.87
2018-09-20T02:06:52.411Z,12.77
2018-09-20T02:09:21.263Z,9.07
2018-09-20T02:11:50.308Z,8.33
2018-09-20T02:14:19.266Z,10.33
2018-09-20T02:16:48.158Z,13.07
2018-09-20T02:19:17.060Z,18.80
2018-09-20T02:21:45.923Z,10.37
2018-09-20T02:24:14.904Z,12.80
2018-09-20T02:26:43.840Z,16.33
2018-09-20T02:29:13.542Z,14.47
2018-09-20T02:31:42.387Z,10.30
2018-09-20T02:34:11.340Z,14.60
2018-09-20T02:36:40.247Z,18.50
2018-09-20T02:39:09.638Z,28.20
2018-09-20T02:41:39.019Z,12.97
2018-09-20T02:44:07.840Z,10.20
2018-09-20T02:46:36.732Z,8.47
2018-09-20T02:49:05.644Z,10.13
2018-09-20T02:51:34.613Z,10.77
2018-09-20T02:54:03.403Z,11.73
2018-09-20T02:56:32.241Z,11.53
2018-09-20T02:59:02.297Z,9.93
2018-09-20T03:01:31.498Z,10.30
2018-09-20T03:04:00.335Z,13.57
2018-09-20T03:06:29.259Z,13.50
2018-09-20T03:08:58.209Z,16.67
2018-09-20T03:11:27.096Z,19.23
2018-09-20T03:13:55.971Z,10.43
2018-09-20T03:16:24.903Z,12.90
2018-09-20T03:18:53.722Z,11.37
2018-09-20T03:21:22.574Z,10.97
2018-09-20T03:23:51.796Z,11.73
2018-09-20T03:26:21.130Z,12.67
2018-09-20T03:28:50.106Z,19.07
2018-09-20T03:31:19.140Z,9.33
2018-09-20T03:33:48.256Z,11.93
2018-09-20T03:36:17.296Z,12.77
2018-09-20T03:38:46.204Z,12.33
2018-09-20T03:41:15.063Z,11.87
2018-09-20T03:43:43.872Z,9.67
2018-09-20T03:46:12.829Z,10.20
2018-09-20T03:48:41.652Z,12.63
2018-09-20T03:51:10.531Z,13.13
2018-09-20T03:53:39.261Z,14.87
2018-09-20T03:56:08.195Z,14.20
2018-09-20T03:58:37.212Z,12.50
2018-09-20T04:01:06.245Z,15.07
2018-09-20T04:03:35.147Z,23.67
2018-09-20T04:06:04.020Z,12.63
2018-09-20T04:08:41.139Z,14.27
2018-09-20T04:11:10.095Z,20.00
2018-09-20T04:13:38.918Z,11.47
2018-09-20T04:16:08.463Z,18.97
2018-09-20T04:18:37.338Z,13.07
2018-09-20T04:21:06.345Z,14.20
2018-09-20T04:23:35.340Z,17.10
2018-09-20T04:26:04.208Z,14.17
2018-09-20T04:28:33.089Z,13.20
2018-09-20T04:31:01.921Z,11.20
2018-09-20T04:33:30.851Z,10.70
2018-09-20T04:35:59.635Z,10.50
2018-09-20T04:38:28.616Z,13.60
2018-09-20T04:40:57.886Z,13.17
2018-09-20T04:43:26.829Z,11.67
2018-09-20T04:45:55.744Z,10.57
2018-09-20T04:48:25.317Z,14.47
2018-09-20T04:50:54.241Z,14.23
2018-09-20T04:53:23.208Z,11.37
2018-09-20T04:55:52.189Z,13.67
2018-09-20T04:58:44.511Z,11.00
2018-09-20T05:01:13.396Z,14.20
2018-09-20T05:03:42.833Z,14.43
2018-09-20T05:06:11.930Z,11.07
2018-09-20T05:08:40.904Z,15.20
2018-09-20T05:11:09.631Z,11.40
2018-09-20T05:13:38.512Z,13.07
2018-09-20T05:16:07.667Z,15.90
2018-09-20T05:18:36.470Z,15.40
2018-09-20T05:21:05.481Z,13.00
2018-09-20T05:23:34.445Z,17.23
2018-09-20T05:26:03.306Z,19.57
2018-09-20T05:28:32.238Z,23.07
2018-09-20T05:31:01.055Z,11.67
2018-09-20T05:33:29.977Z,14.10
2018-09-20T05:35:59.357Z,25.37
2018-09-20T05:38:28.216Z,19.57
2018-09-20T05:40:57.194Z,21.57
2018-09-20T05:43:26.128Z,14.03
2018-09-20T05:45:55.407Z,12.60
2018-09-20T05:48:25.559Z,16.20
2018-09-20T05:50:54.388Z,13.47
2018-09-20T05:53:23.186Z,15.53
2018-09-20T05:55:52.067Z,20.40
2018-09-20T05:58:21.570Z,28.70
2018-09-20T06:00:50.508Z,19.27
2018-09-20T06:03:19.322Z,16.60
2018-09-20T06:05:48.164Z,10.37
2018-09-20T06:08:17.063Z,21.40
2018-09-20T06:10:45.886Z,20.80
2018-09-20T06:13:14.881Z,15.27
2018-09-20T06:15:43.790Z,20.20
2018-09-20T06:18:12.696Z,21.70
2018-09-20T06:20:41.620Z,21.80
2018-09-20T06:23:10.631Z,26.27
2018-09-20T06:25:39.629Z,19.47
2018-09-20T06:28:08.420Z,19.10
2018-09-20T06:30:37.379Z,24.77
2018-09-20T06:33:43.167Z,25.53
2018-09-20T06:36:12.052Z,28.57
2018-09-20T06:38:40.826Z,27.67
2018-09-20T06:41:09.702Z,15.53
2018-09-20T06:43:38.441Z,24.57
2018-09-20T06:46:07.325Z,25.67
2018-09-20T06:51:27.492Z,21.70
2018-09-20T06:53:56.922Z,18.83
2018-09-20T06:56:26.219Z,62.83
2018-09-20T06:58:54.945Z,128.80
2018-09-20T07:01:23.653Z,73.00
2018-09-20T07:03:53.896Z,72.87
2018-09-20T07:06:22.914Z,41.50
2018-09-20T07:08:51.953Z,27.93
2018-09-20T07:11:21.533Z,13.73
2018-09-20T07:13:50.977Z,16.67
2018-09-20T07:16:20.193Z,24.73
2018-09-20T07:18:49.279Z,13.23
2018-09-20T07:21:18.115Z,10.70
2018-09-20T07:23:47.177Z,9.60
2018-09-20T07:26:17.062Z,21.57
2018-09-20T07:28:46.199Z,18.40
2018-09-20T07:31:15.135Z,31.60
2018-09-20T07:33:44.061Z,36.23
2018-09-20T07:36:13.096Z,39.20
2018-09-20T07:38:42.052Z,15.33
2018-09-20T07:41:11.161Z,20.57
2018-09-20T07:43:40.254Z,14.27
2018-09-20T07:46:09.164Z,16.63
2018-09-20T07:48:38.040Z,10.10
2018-09-20T07:51:07.085Z,14.00
2018-09-20T07:53:36.639Z,10.03
2018-09-20T07:56:05.623Z,12.13
2018-09-20T07:58:35.213Z,9.03
2018-09-20T08:01:05.793Z,14.37
2018-09-20T08:03:35.140Z,18.23
2018-09-20T08:06:09.872Z,15.10
2018-09-20T08:08:39.659Z,13.90
2018-09-20T08:11:10.902Z,14.10
2018-09-20T08:13:40.110Z,14.23
2018-09-20T08:16:11.919Z,12.87
2018-09-20T08:18:41.557Z,18.77
2018-09-20T08:21:11.362Z,21.47
2018-09-20T08:23:40.647Z,22.40
2018-09-20T08:26:10.615Z,17.93
2018-09-20T08:28:39.527Z,21.70
2018-09-20T08:31:08.644Z,21.03
2018-09-20T08:33:37.792Z,21.77
2018-09-20T08:36:10.197Z,27.93
2018-09-20T08:38:39.532Z,21.97
2018-09-20T08:41:11.981Z,37.80
2018-09-20T08:43:42.382Z,21.57
2018-09-20T08:46:11.913Z,38.70
2018-09-20T08:48:40.946Z,14.90
2018-09-20T08:51:10.172Z,16.30
2018-09-20T08:53:38.948Z,17.13
2018-09-20T08:56:08.003Z,26.87
2018-09-20T08:58:36.930Z,25.53
2018-09-20T09:01:06.387Z,23.10
2018-09-20T09:03:35.312Z,29.63
2018-09-20T09:06:04.648Z,22.10
2018-09-20T09:08:34.165Z,12.98
2018-09-20T09:11:03.311Z,25.52
2018-09-20T09:13:32.149Z,13.70
2018-09-20T09:16:01.068Z,16.15
2018-09-20T09:18:30.159Z,16.75
2018-09-20T09:20:59.057Z,12.70
2018-09-20T09:23:29.019Z,24.63
2018-09-20T09:25:58.035Z,22.55
2018-09-20T09:28:28.568Z,15.93
2018-09-20T09:30:58.317Z,11.93
2018-09-20T09:33:29.142Z,15.37
2018-09-20T09:35:58.229Z,22.33
2018-09-20T09:38:27.955Z,15.67
2018-09-20T09:40:56.843Z,14.23
2018-09-20T09:43:26.098Z,16.63
2018-09-20T09:45:56.133Z,29.10
2018-09-20T09:48:26.066Z,19.77
2018-09-20T09:50:55.053Z,9.57
2018-09-20T09:53:24.410Z,17.10
2018-09-20T09:55:53.367Z,13.80
2018-09-20T09:58:22.487Z,11.77
2018-09-20T10:00:51.439Z,14.63
2018-09-20T10:03:20.339Z,12.17
2018-09-20T10:05:50.296Z,15.13
2018-09-20T10:08:19.818Z,8.38
2018-09-20T10:10:48.828Z,18.73
2018-09-20T10:13:17.929Z,15.65
2018-09-20T10:15:47.153Z,12.82
2018-09-20T10:18:16.067Z,12.88
2018-09-20T10:20:45.157Z,8.73
2018-09-20T10:23:15.522Z,11.97
2018-09-20T10:25:44.542Z,9.28
2018-09-20T10:28:16.081Z,18.30
2018-09-20T10:30:47.982Z,12.53
2018-09-20T10:33:19.171Z,13.10
2018-09-20T10:35:48.259Z,14.63
2018-09-20T10:38:17.418Z,10.13
2018-09-20T10:40:47.799Z,8.73
2018-09-20T10:43:16.772Z,17.62
2018-09-20T10:45:45.967Z,17.57
2018-09-20T10:48:14.920Z,11.93
2018-09-20T10:50:43.926Z,10.68
2018-09-20T10:53:13.085Z,14.50
2018-09-20T10:55:42.036Z,7.85
2018-09-20T10:58:11.131Z,16.48
2018-09-20T11:00:40.175Z,14.68
2018-09-20T11:03:09.322Z,11.43
2018-09-20T11:05:38.140Z,7.65
2018-09-20T11:08:07.961Z,12.00
2018-09-20T11:10:36.832Z,11.25
2018-09-20T11:13:06.058Z,9.83
2018-09-20T11:15:35.047Z,8.38
2018-09-20T11:18:04.005Z,5.53
2018-09-20T11:20:33.480Z,6.15
2018-09-20T11:23:03.928Z,9.20
2018-09-20T11:25:32.858Z,8.63
2018-09-20T11:28:01.700Z,10.23
2018-09-20T11:30:30.673Z,9.70
2018-09-20T11:32:59.527Z,6.28
2018-09-20T11:35:28.411Z,10.20
2018-09-20T11:37:57.998Z,8.83
2018-09-20T11:40:27.154Z,5.60
2018-09-20T11:42:56.127Z,16.83
2018-09-20T11:45:25.141Z,6.25
2018-09-20T11:47:53.989Z,19.25
2018-09-20T11:50:22.820Z,14.73
2018-09-20T11:52:51.755Z,6.23
2018-09-20T11:55:20.919Z,11.97
2018-09-20T11:57:51.438Z,8.30
2018-09-20T12:00:22.011Z,6.20
2018-09-20T12:02:52.719Z,11.20
2018-09-20T12:05:22.428Z,10.13
2018-09-20T12:07:51.445Z,6.73
2018-09-20T12:10:20.740Z,11.80
2018-09-20T12:12:49.702Z,9.80
2018-09-20T12:15:18.635Z,14.27
2018-09-20T12:17:47.466Z,7.30
2018-09-20T12:20:16.522Z,7.10
2018-09-20T12:22:45.455Z,12.10
2018-09-20T12:25:14.220Z,6.77
2018-09-20T12:27:45.069Z,6.73
2018-09-20T12:30:14.909Z,7.87
2018-09-20T12:32:47.356Z,10.50
2018-09-20T12:35:16.405Z,9.57
2018-09-20T12:37:45.646Z,10.77
2018-09-20T12:40:14.718Z,7.23
2018-09-20T12:42:45.794Z,7.87
2018-09-20T12:45:14.692Z,14.80
2018-09-20T12:47:43.552Z,9.13
2018-09-20T12:50:13.147Z,9.30
2018-09-20T12:52:41.965Z,6.67
2018-09-20T12:55:11.015Z,13.03
2018-09-20T12:57:43.601Z,7.97
2018-09-20T13:00:12.801Z,8.90
2018-09-20T13:02:41.684Z,9.03
2018-09-20T13:05:10.664Z,7.53
2018-09-20T13:07:39.520Z,6.37
2018-09-20T13:10:08.417Z,14.13
2018-09-20T13:12:37.461Z,7.83
2018-09-20T13:15:10.406Z,6.27
2018-09-20T13:17:39.417Z,11.77
2018-09-20T13:20:12.519Z,8.33
2018-09-20T13:22:42.532Z,5.23
2018-09-20T13:25:12.526Z,5.30
2018-09-20T13:27:41.863Z,6.30
2018-09-20T13:30:11.011Z,6.33
2018-09-20T13:32:40.140Z,10.07
2018-09-20T13:35:09.138Z,7.80
2018-09-20T13:37:38.108Z,4.93
2018-09-20T13:40:07.262Z,5.07
2018-09-20T13:42:36.342Z,11.27
2018-09-20T13:45:05.500Z,8.17
2018-09-20T13:47:36.120Z,6.27
2018-09-20T13:50:05.820Z,9.07
2018-09-20T13:52:35.407Z,8.57
2018-09-20T13:55:04.400Z,5.60
2018-09-20T13:57:33.345Z,5.80
2018-09-20T14:00:02.475Z,14.83
2018-09-20T14:02:31.311Z,14.00
2018-09-20T14:05:00.709Z,7.83
2018-09-20T14:07:29.632Z,5.63
2018-09-20T14:09:59.665Z,6.50
2018-09-20T14:12:28.766Z,7.50
2018-09-20T14:14:58.311Z,5.07
2018-09-20T14:17:27.491Z,4.30
2018-09-20T14:19:56.282Z,4.50
2018-09-20T14:22:25.211Z,8.43
2018-09-20T14:24:54.261Z,5.87
2018-09-20T14:27:23.340Z,8.07
2018-09-20T14:30:08.718Z,7.43
2018-09-20T14:32:46.323Z,7.20
2018-09-20T14:35:15.311Z,9.03
2018-09-20T14:37:44.536Z,6.63
2018-09-20T14:40:13.417Z,12.73
2018-09-20T14:42:42.223Z,4.80
2018-09-20T14:45:11.200Z,11.20
2018-09-20T14:47:40.187Z,6.03
2018-09-20T14:50:09.049Z,5.30
2018-09-20T14:52:38.140Z,5.93
2018-09-20T14:55:07.286Z,4.93
2018-09-20T14:57:36.589Z,4.63
2018-09-20T15:00:05.661Z,10.43
2018-09-20T15:02:34.827Z,4.23
2018-09-20T15:05:03.841Z,4.63
2018-09-20T15:07:32.702Z,6.50
2018-09-20T15:10:01.596Z,8.37
2018-09-20T15:12:31.183Z,5.37
2018-09-20T15:15:00.785Z,6.00
2018-09-20T15:17:29.908Z,5.87
2018-09-20T15:19:59.418Z,7.03
2018-09-20T15:22:29.375Z,9.27
2018-09-20T15:24:58.482Z,7.97
2018-09-20T15:27:28.906Z,7.43
2018-09-20T15:29:57.847Z,6.83
2018-09-20T15:32:26.891Z,9.27
2018-09-20T15:34:57.013Z,7.87
2018-09-20T15:37:25.853Z,4.90
2018-09-20T15:39:54.905Z,5.70
2018-09-20T15:42:23.830Z,5.37
2018-09-20T15:44:53.983Z,6.10
2018-09-20T15:47:25.634Z,8.10
2018-09-20T15:49:54.661Z,6.10
2018-09-20T15:52:24.034Z,9.23
2018-09-20T15:54:53.104Z,7.90
2018-09-20T15:57:22.173Z,10.27
2018-09-20T15:59:51.535Z,5.30
2018-09-20T16:02:20.479Z,13.27
2018-09-20T16:04:49.545Z,9.03
2018-09-20T16:07:18.608Z,15.23
2018-09-20T16:09:47.975Z,6.77
2018-09-20T16:12:17.334Z,9.10
2018-09-20T16:14:47.155Z,7.67
2018-09-20T16:17:15.963Z,4.97
2018-09-20T16:19:44.903Z,10.30
2018-09-20T16:22:13.858Z,12.93
2018-09-20T16:24:42.823Z,8.73
2018-09-20T16:27:11.959Z,11.30
2018-09-20T16:29:44.168Z,5.20
2018-09-20T16:34:56.255Z,6.23
2018-09-20T16:39:34.983Z,7.40
2018-09-20T16:42:05.467Z,5.70
2018-09-20T16:44:34.326Z,7.00
2018-09-20T16:47:03.266Z,6.67
2018-09-20T16:49:32.322Z,11.87
2018-09-20T16:52:01.167Z,8.67
2018-09-20T16:54:30.113Z,8.67
2018-09-20T16:56:58.944Z,6.33
2018-09-20T16:59:28.230Z,7.53
2018-09-20T17:01:57.457Z,8.53
2018-09-20T17:04:30.990Z,7.33
2018-09-20T17:07:00.134Z,14.37
2018-09-20T17:09:29.531Z,11.43
2018-09-20T17:11:58.490Z,7.03
2018-09-20T17:14:27.544Z,7.17
2018-09-20T17:16:56.877Z,7.87
2018-09-20T17:19:26.838Z,17.63
2018-09-20T17:21:56.461Z,6.60
2018-09-20T17:24:25.741Z,13.97
2018-09-20T17:26:55.666Z,16.40
2018-09-20T17:29:25.125Z,7.43
2018-09-20T17:31:54.571Z,8.43
2018-09-20T17:34:25.912Z,5.63
2018-09-20T17:36:56.357Z,9.90
2018-09-20T17:39:27.262Z,16.43
2018-09-20T17:41:57.579Z,9.97
2018-09-20T17:44:26.590Z,13.67
2018-09-20T17:46:58.056Z,17.53
2018-09-20T17:49:27.246Z,13.67
2018-09-20T17:51:56.496Z,10.43
2018-09-20T17:54:25.830Z,11.23
2018-09-20T17:56:55.564Z,19.87
2018-09-20T17:59:24.448Z,7.70
2018-09-20T18:01:53.530Z,9.90
2018-09-20T18:04:22.553Z,6.33
2018-09-20T18:06:52.373Z,8.70
2018-09-20T18:09:21.874Z,15.53
2018-09-20T18:11:52.920Z,10.17
2018-09-20T18:14:23.303Z,9.53
2018-09-20T18:16:53.843Z,12.57
2018-09-20T18:19:23.066Z,8.67
2018-09-20T18:21:57.784Z,9.30
2018-09-20T18:24:26.957Z,15.73
2018-09-20T18:26:56.164Z,12.20
2018-09-20T18:29:25.274Z,17.33
2018-09-20T18:31:55.249Z,15.33
2018-09-20T18:34:24.465Z,11.67
2018-09-20T18:36:55.442Z,22.10
2018-09-20T18:39:25.522Z,13.80
2018-09-20T18:41:56.474Z,11.77
2018-09-20T18:44:26.953Z,11.43
2018-09-20T18:46:56.537Z,16.13
2018-09-20T18:49:25.878Z,10.03
2018-09-20T18:51:56.044Z,10.77
2018-09-20T18:54:25.087Z,13.60
2018-09-20T18:56:54.178Z,19.47
2018-09-20T18:59:27.459Z,12.40
2018-09-20T19:01:56.839Z,18.60
2018-09-20T19:04:25.912Z,16.00
2018-09-20T19:06:55.868Z,13.60
2018-09-20T19:09:25.011Z,8.47
2018-09-20T19:11:54.110Z,17.07
2018-09-20T19:14:23.061Z,12.77
2018-09-20T19:16:52.045Z,13.87
2018-09-20T19:19:21.159Z,10.43
2018-09-20T19:21:54.366Z,11.93
2018-09-20T19:24:25.584Z,15.03
2018-09-20T19:26:55.280Z,20.90
2018-09-20T19:29:24.975Z,11.23
2018-09-20T19:31:55.894Z,16.83
2018-09-20T19:34:27.552Z,12.47
2018-09-20T19:39:50.215Z,17.50
2018-09-20T19:42:19.152Z,12.00
2018-09-20T19:44:49.751Z,11.90
2018-09-20T19:47:20.864Z,12.70
2018-09-20T19:49:50.424Z,13.13
2018-09-20T19:52:19.523Z,11.40
2018-09-20T19:54:48.763Z,12.63
2018-09-20T19:57:18.005Z,10.10
2018-09-20T19:59:47.114Z,7.60
2018-09-20T20:02:16.283Z,13.33
2018-09-20T20:04:45.713Z,12.60
2018-09-20T20:07:15.532Z,12.77
2018-09-20T20:09:44.624Z,13.13
2018-09-20T20:12:14.731Z,17.77
2018-09-20T20:14:46.193Z,8.93
2018-09-20T20:17:17.071Z,12.23
2018-09-20T20:19:46.712Z,10.20
2018-09-20T20:22:18.661Z,11.30
2018-09-20T20:24:48.008Z,8.60
2018-09-20T20:27:17.049Z,17.00
2018-09-20T20:29:46.162Z,18.40
2018-09-20T20:32:15.361Z,22.73
2018-09-20T20:34:46.589Z,17.50
2018-09-20T20:37:15.719Z,16.03
2018-09-20T20:39:46.274Z,12.83
2018-09-20T20:42:16.083Z,21.00
2018-09-20T20:44:45.673Z,13.50
2018-09-20T20:47:14.878Z,11.63
2018-09-20T20:49:44.135Z,16.30
2018-09-20T20:52:13.548Z,14.07
2018-09-20T20:54:42.922Z,14.17
2018-09-20T20:57:12.250Z,22.60
2018-09-20T20:59:41.291Z,22.47
2018-09-20T21:02:11.011Z,13.07
2018-09-20T21:04:40.932Z,10.07
2018-09-20T21:07:10.068Z,7.80
2018-09-20T21:09:39.247Z,20.70
2018-09-20T21:12:08.155Z,12.13
2018-09-20T21:14:39.946Z,14.50
2018-09-20T21:17:12.123Z,15.40
2018-09-20T21:19:41.696Z,16.73
2018-09-20T21:22:10.846Z,14.27
2018-09-20T21:24:40.816Z,14.60
2018-09-20T21:27:10.610Z,18.40
2018-09-20T21:29:42.067Z,14.07
2018-09-20T21:32:11.305Z,11.93
2018-09-20T21:34:40.989Z,15.37
2018-09-20T21:37:10.796Z,13.70
2018-09-20T21:39:40.442Z,22.70
2018-09-20T21:42:14.222Z,19.60
2018-09-20T21:44:44.058Z,19.40
2018-09-20T21:47:13.387Z,15.57
2018-09-20T21:49:42.438Z,19.00
2018-09-20T21:52:12.173Z,19.33
2018-09-20T21:54:43.178Z,13.20
2018-09-20T21:57:13.068Z,12.23
2018-09-20T21:59:43.845Z,11.83
2018-09-20T22:02:14.522Z,12.70
2018-09-20T22:04:43.499Z,15.97
2018-09-20T22:07:12.400Z,21.30
2018-09-20T22:09:41.385Z,19.10
2018-09-20T22:12:11.059Z,16.77
2018-09-20T22:14:41.434Z,16.83
2018-09-20T22:17:10.507Z,21.07
2018-09-20T22:19:39.368Z,14.23
2018-09-20T22:22:08.346Z,15.13
2018-09-20T22:24:37.328Z,20.37
2018-09-20T22:27:06.182Z,25.67
2018-09-20T22:29:35.051Z,18.10
2018-09-20T22:32:03.940Z,21.17
2018-09-20T22:34:32.850Z,21.07
2018-09-20T22:37:01.779Z,13.57
2018-09-20T22:39:30.893Z,20.70
2018-09-20T22:41:59.807Z,15.47
2018-09-20T22:44:28.651Z,14.33
2018-09-20T22:46:57.709Z,11.53
2018-09-20T22:49:26.665Z,11.43
2018-09-20T22:51:55.721Z,10.77
2018-09-20T22:54:24.680Z,11.13
2018-09-20T22:56:53.675Z,15.93
2018-09-20T22:59:22.640Z,9.87
2018-09-20T23:01:52.046Z,11.77
2018-09-20T23:04:21.379Z,10.00
2018-09-20T23:06:51.653Z,12.07
2018-09-20T23:09:20.939Z,10.40
2018-09-20T23:11:50.527Z,9.67
2018-09-20T23:14:19.313Z,10.27
2018-09-20T23:16:49.100Z,9.80
2018-09-20T23:19:18.413Z,10.03
2018-09-20T23:21:48.427Z,9.00
2018-09-20T23:24:18.181Z,11.67
2018-09-20T23:26:47.210Z,12.77
2018-09-20T23:29:22.051Z,18.13
2018-09-20T23:31:51.526Z,11.37
2018-09-20T23:34:21.386Z,18.97
2018-09-20T23:36:50.692Z,11.90
2018-09-20T23:39:20.176Z,13.37
2018-09-20T23:41:49.870Z,15.63
2018-09-20T23:44:19.271Z,14.97
2018-09-20T23:46:49.821Z,15.30
2018-09-20T23:49:19.335Z,11.10
2018-09-20T23:51:49.245Z,11.17
2018-09-20T23:54:18.107Z,14.83
2018-09-20T23:56:47.625Z,11.10
2018-09-20T23:59:17.822Z,11.10
